sensor_id;sensor_type;location;lat;lon;timestamp;pressure;altitude;pressure_sealevel;temperature;humidity
40205;BME280;26963;42.666;23.366;2023-12-07T00:01:10;94586.38;;;7.97;68.90
40205;BME280;26963;42.666;23.366;2023-12-07T00:03:37;94550.31;;;7.81;68.66
40205;BME280;26963;42.666;23.366;2023-12-07T00:06:02;94571.69;;;7.76;69.26
40205;BME280;26963;42.666;23.366;2023-12-07T00:08:28;94521.94;;;7.47;69.29
40205;BME280;26963;42.666;23.366;2023-12-07T00:10:53;94584.84;;;7.91;69.08
40205;BME280;26963;42.666;23.366;2023-12-07T00:13:19;94538.84;;;7.56;68.76
40205;BME280;26963;42.666;23.366;2023-12-07T00:15:45;94572.75;;;7.75;68.77
40205;BME280;26963;42.666;23.366;2023-12-07T00:18:10;94518.78;;;7.45;68.71
40205;BME280;26963;42.666;23.366;2023-12-07T00:20:36;94587.72;;;7.95;68.17
40205;BME280;26963;42.666;23.366;2023-12-07T00:23:01;94584.28;;;7.94;68.12
40205;BME280;26963;42.666;23.366;2023-12-07T00:25:27;94581.69;;;7.89;67.48
40205;BME280;26963;42.666;23.366;2023-12-07T00:27:53;94581.22;;;7.82;67.56
40205;BME280;26963;42.666;23.366;2023-12-07T00:30:18;94560.56;;;7.68;67.34
40205;BME280;26963;42.666;23.366;2023-12-07T00:32:44;94580.19;;;7.78;68.07
40205;BME280;26963;42.666;23.366;2023-12-07T00:35:10;94587.56;;;7.86;68.46
40205;BME280;26963;42.666;23.366;2023-12-07T00:37:36;94521.94;;;7.47;68.35
40205;BME280;26963;42.666;23.366;2023-12-07T00:40:02;94534.69;;;7.50;68.33
40205;BME280;26963;42.666;23.366;2023-12-07T00:42:28;94588.31;;;7.92;68.36
40205;BME280;26963;42.666;23.366;2023-12-07T00:44:54;94591.69;;;7.97;68.40
40205;BME280;26963;42.666;23.366;2023-12-07T00:47:20;94594.34;;;7.97;68.86
40205;BME280;26963;42.666;23.366;2023-12-07T00:49:46;94594.34;;;7.97;68.85
40205;BME280;26963;42.666;23.366;2023-12-07T00:52:15;94543.19;;;7.76;68.86
40205;BME280;26963;42.666;23.366;2023-12-07T00:54:41;94581.88;;;7.93;68.77
40205;BME280;26963;42.666;23.366;2023-12-07T00:57:06;94560.13;;;7.86;68.85
40205;BME280;26963;42.666;23.366;2023-12-07T00:59:32;94524.09;;;7.69;68.98
40205;BME280;26963;42.666;23.366;2023-12-07T01:02:04;94577.81;;;8.00;69.59
40205;BME280;26963;42.666;23.366;2023-12-07T01:04:30;94568.06;;;7.91;69.41
40205;BME280;26963;42.666;23.366;2023-12-07T01:06:57;94554.53;;;7.87;69.42
40205;BME280;26963;42.666;23.366;2023-12-07T01:09:22;94566.41;;;7.95;69.91
40205;BME280;26963;42.666;23.366;2023-12-07T01:11:49;94557.75;;;7.84;69.78
40205;BME280;26963;42.666;23.366;2023-12-07T01:14:15;94546.66;;;7.77;70.13
40205;BME280;26963;42.666;23.366;2023-12-07T01:16:54;94569.97;;;7.85;70.60
40205;BME280;26963;42.666;23.366;2023-12-07T01:19:20;94587.22;;;7.93;70.64
40205;BME280;26963;42.666;23.366;2023-12-07T01:21:46;94521.59;;;7.54;70.55
40205;BME280;26963;42.666;23.366;2023-12-07T01:24:12;94556.94;;;7.83;70.54
40205;BME280;26963;42.666;23.366;2023-12-07T01:26:38;94570.91;;;7.99;70.08
40205;BME280;26963;42.666;23.366;2023-12-07T01:29:04;94533.81;;;7.79;70.00
40205;BME280;26963;42.666;23.366;2023-12-07T01:31:29;94501.09;;;7.54;69.89
40205;BME280;26963;42.666;23.366;2023-12-07T01:33:55;94570.38;;;7.97;70.11
40205;BME280;26963;42.666;23.366;2023-12-07T01:36:21;94570.91;;;7.99;70.25
40205;BME280;26963;42.666;23.366;2023-12-07T01:38:46;94560.81;;;7.96;70.62
40205;BME280;26963;42.666;23.366;2023-12-07T01:41:13;94541.19;;;7.87;70.67
40205;BME280;26963;42.666;23.366;2023-12-07T01:43:47;94478.38;;;7.38;70.39
40205;BME280;26963;42.666;23.366;2023-12-07T01:46:14;94552.88;;;7.91;70.42
40205;BME280;26963;42.666;23.366;2023-12-07T01:48:40;94540.19;;;7.83;70.22
40205;BME280;26963;42.666;23.366;2023-12-07T01:51:06;94524.34;;;7.73;70.69
40205;BME280;26963;42.666;23.366;2023-12-07T01:53:32;94555.47;;;7.96;70.63
40205;BME280;26963;42.666;23.366;2023-12-07T01:55:58;94569.84;;;8.00;70.27
40205;BME280;26963;42.666;23.366;2023-12-07T01:58:24;94543.88;;;7.87;70.05
40205;BME280;26963;42.666;23.366;2023-12-07T02:00:50;94567.16;;;8.00;70.73
40205;BME280;26963;42.666;23.366;2023-12-07T02:03:16;94494.69;;;7.55;70.34
40205;BME280;26963;42.666;23.366;2023-12-07T02:05:43;94561.84;;;8.00;70.81
40205;BME280;26963;42.666;23.366;2023-12-07T02:08:11;94557.06;;;7.97;70.87
40205;BME280;26963;42.666;23.366;2023-12-07T02:10:37;94550.50;;;7.90;70.62
40205;BME280;26963;42.666;23.366;2023-12-07T02:13:02;94550.72;;;7.93;70.85
40205;BME280;26963;42.666;23.366;2023-12-07T02:15:29;94534.28;;;7.86;70.66
40205;BME280;26963;42.666;23.366;2023-12-07T02:20:56;94554.34;;;8.03;70.68
40205;BME280;26963;42.666;23.366;2023-12-07T02:23:24;94564.22;;;8.02;70.27
40205;BME280;26963;42.666;23.366;2023-12-07T02:29:12;94553.31;;;7.98;70.35
40205;BME280;26963;42.666;23.366;2023-12-07T02:31:37;94547.78;;;7.95;70.25
40205;BME280;26963;42.666;23.366;2023-12-07T02:34:03;94491.16;;;7.60;70.31
40205;BME280;26963;42.666;23.366;2023-12-07T02:36:31;94466.53;;;7.49;70.10
40205;BME280;26963;42.666;23.366;2023-12-07T02:38:58;94506.69;;;7.77;70.19
40205;BME280;26963;42.666;23.366;2023-12-07T02:41:27;94492.41;;;7.67;69.92
40205;BME280;26963;42.666;23.366;2023-12-07T02:43:53;94551.97;;;8.01;69.94
40205;BME280;26963;42.666;23.366;2023-12-07T02:46:19;94550.38;;;8.00;69.77
40205;BME280;26963;42.666;23.366;2023-12-07T02:48:45;94419.53;;;7.15;69.39
40205;BME280;26963;42.666;23.366;2023-12-07T02:51:10;94532.91;;;7.89;69.54
40205;BME280;26963;42.666;23.366;2023-12-07T02:53:36;94526.28;;;7.86;69.18
40205;BME280;26963;42.666;23.366;2023-12-07T02:56:02;94553.88;;;7.95;69.39
40205;BME280;26963;42.666;23.366;2023-12-07T02:58:27;94550.22;;;7.91;69.08
40205;BME280;26963;42.666;23.366;2023-12-07T03:00:53;94534.06;;;7.82;69.26
40205;BME280;26963;42.666;23.366;2023-12-07T03:03:18;94536.44;;;7.84;69.45
40205;BME280;26963;42.666;23.366;2023-12-07T03:05:44;94547.88;;;7.84;69.57
40205;BME280;26963;42.666;23.366;2023-12-07T03:08:10;94547.00;;;7.94;69.29
40205;BME280;26963;42.666;23.366;2023-12-07T03:10:35;94550.38;;;8.00;68.97
40205;BME280;26963;42.666;23.366;2023-12-07T03:13:01;94483.00;;;7.51;69.30
40205;BME280;26963;42.666;23.366;2023-12-07T03:15:27;94560.75;;;8.02;68.92
40205;BME280;26963;42.666;23.366;2023-12-07T03:17:53;94550.97;;;7.97;68.72
40205;BME280;26963;42.666;23.366;2023-12-07T03:20:19;94537.25;;;7.84;68.28
40205;BME280;26963;42.666;23.366;2023-12-07T03:22:45;94546.75;;;7.91;68.39
40205;BME280;26963;42.666;23.366;2023-12-07T03:25:10;94551.28;;;7.90;68.20
40205;BME280;26963;42.666;23.366;2023-12-07T03:27:36;94472.25;;;7.37;68.44
40205;BME280;26963;42.666;23.366;2023-12-07T03:30:02;94556.00;;;7.74;69.35
40205;BME280;26963;42.666;23.366;2023-12-07T03:32:27;94574.34;;;7.76;69.90
40205;BME280;26963;42.666;23.366;2023-12-07T03:34:53;94553.81;;;7.52;70.36
40205;BME280;26963;42.666;23.366;2023-12-07T03:37:18;94481.81;;;7.14;70.43
40205;BME280;26963;42.666;23.366;2023-12-07T03:39:44;94580.25;;;7.73;70.33
40205;BME280;26963;42.666;23.366;2023-12-07T03:42:10;94572.75;;;7.75;70.46
40205;BME280;26963;42.666;23.366;2023-12-07T03:44:35;94566.34;;;7.76;70.37
40205;BME280;26963;42.666;23.366;2023-12-07T03:47:01;94563.75;;;7.71;69.78
40205;BME280;26963;42.666;23.366;2023-12-07T03:49:26;94573.78;;;7.79;69.32
40205;BME280;26963;42.666;23.366;2023-12-07T03:51:52;94568.19;;;7.80;69.10
40205;BME280;26963;42.666;23.366;2023-12-07T03:54:17;94498.66;;;7.33;69.25
40205;BME280;26963;42.666;23.366;2023-12-07T03:56:44;94575.25;;;7.90;69.41
40205;BME280;26963;42.666;23.366;2023-12-07T03:59:09;94571.06;;;7.84;69.53
40205;BME280;26963;42.666;23.366;2023-12-07T04:01:35;94478.66;;;7.36;69.48
40205;BME280;26963;42.666;23.366;2023-12-07T04:04:01;94553.50;;;7.83;69.32
40205;BME280;26963;42.666;23.366;2023-12-07T04:06:26;94483.66;;;7.43;69.29
40205;BME280;26963;42.666;23.366;2023-12-07T04:08:52;94497.38;;;7.55;69.20
40205;BME280;26963;42.666;23.366;2023-12-07T04:11:18;94562.38;;;7.97;68.85
40205;BME280;26963;42.666;23.366;2023-12-07T04:13:44;94555.25;;;7.93;68.57
40205;BME280;26963;42.666;23.366;2023-12-07T04:16:11;94512.88;;;7.48;69.16
40205;BME280;26963;42.666;23.366;2023-12-07T04:18:37;94572.28;;;7.67;69.44
40205;BME280;26963;42.666;23.366;2023-12-07T04:21:03;94572.88;;;7.35;64.71
40205;BME280;26963;42.666;23.366;2023-12-07T04:23:29;94588.22;;;7.14;68.08
40205;BME280;26963;42.666;23.366;2023-12-07T04:25:54;94562.41;;;6.80;69.99
40205;BME280;26963;42.666;23.366;2023-12-07T04:28:20;94589.03;;;6.75;70.71
40205;BME280;26963;42.666;23.366;2023-12-07T04:30:46;94578.22;;;6.61;73.01
40205;BME280;26963;42.666;23.366;2023-12-07T04:33:11;94503.09;;;6.00;73.34
40205;BME280;26963;42.666;23.366;2023-12-07T04:35:37;94524.03;;;6.07;73.54
40205;BME280;26963;42.666;23.366;2023-12-07T04:38:02;94593.97;;;6.47;73.83
40205;BME280;26963;42.666;23.366;2023-12-07T04:40:28;94595.06;;;6.41;74.20
40205;BME280;26963;42.666;23.366;2023-12-07T04:42:54;94549.81;;;6.06;74.20
40205;BME280;26963;42.666;23.366;2023-12-07T04:45:20;94589.75;;;6.41;74.76
40205;BME280;26963;42.666;23.366;2023-12-07T04:47:46;94609.91;;;6.52;74.21
40205;BME280;26963;42.666;23.366;2023-12-07T04:50:12;94601.91;;;6.52;74.62
40205;BME280;26963;42.666;23.366;2023-12-07T04:52:38;94542.59;;;6.12;73.56
40205;BME280;26963;42.666;23.366;2023-12-07T04:55:05;94566.94;;;6.34;75.94
40205;BME280;26963;42.666;23.366;2023-12-07T04:57:35;94600.97;;;6.77;75.54
40205;BME280;26963;42.666;23.366;2023-12-07T05:00:02;94609.09;;;6.96;74.91
40205;BME280;26963;42.666;23.366;2023-12-07T05:02:40;94604.19;;;7.14;74.42
40205;BME280;26963;42.666;23.366;2023-12-07T05:05:06;94610.47;;;7.28;73.55
40205;BME280;26963;42.666;23.366;2023-12-07T05:07:32;94566.94;;;7.14;73.07
40205;BME280;26963;42.666;23.366;2023-12-07T05:09:57;94603.94;;;7.45;72.87
40205;BME280;26963;42.666;23.366;2023-12-07T05:12:23;94594.38;;;7.44;71.93
40205;BME280;26963;42.666;23.366;2023-12-07T05:14:49;94595.38;;;7.48;71.48
40205;BME280;26963;42.666;23.366;2023-12-07T05:17:16;94610.66;;;7.66;71.08
40205;BME280;26963;42.666;23.366;2023-12-07T05:19:41;94485.72;;;6.92;71.17
40205;BME280;26963;42.666;23.366;2023-12-07T05:22:07;94617.69;;;7.81;71.26
40205;BME280;26963;42.666;23.366;2023-12-07T05:24:34;94599.34;;;7.80;71.06
40205;BME280;26963;42.666;23.366;2023-12-07T05:27:00;94604.13;;;7.83;70.53
40205;BME280;26963;42.666;23.366;2023-12-07T05:29:26;94621.00;;;7.97;70.33
40205;BME280;26963;42.666;23.366;2023-12-07T05:31:51;94607.16;;;7.95;69.94
40205;BME280;26963;42.666;23.366;2023-12-07T05:34:17;94584.72;;;7.77;69.39
40205;BME280;26963;42.666;23.366;2023-12-07T05:36:43;94613.06;;;7.92;68.66
40205;BME280;26963;42.666;23.366;2023-12-07T05:39:09;94491.38;;;7.15;68.53
40205;BME280;26963;42.666;23.366;2023-12-07T05:41:36;94629.00;;;7.97;68.97
40205;BME280;26963;42.666;23.366;2023-12-07T05:44:02;94634.25;;;8.03;69.32
40205;BME280;26963;42.666;23.366;2023-12-07T05:46:29;94563.88;;;7.60;68.61
40205;BME280;26963;42.666;23.366;2023-12-07T05:48:54;94618.41;;;7.92;68.88
40205;BME280;26963;42.666;23.366;2023-12-07T05:51:20;94639.03;;;8.06;69.19
40205;BME280;26963;42.666;23.366;2023-12-07T05:53:46;94634.25;;;8.03;68.63
40205;BME280;26963;42.666;23.366;2023-12-07T05:56:11;94630.06;;;7.96;68.18
40205;BME280;26963;42.666;23.366;2023-12-07T05:58:38;94609.94;;;7.85;68.15
40205;BME280;26963;42.666;23.366;2023-12-07T06:01:03;94624.50;;;7.93;68.05
40205;BME280;26963;42.666;23.366;2023-12-07T06:03:29;94648.34;;;8.08;68.24
40205;BME280;26963;42.666;23.366;2023-12-07T06:05:55;94600.94;;;7.81;67.97
40205;BME280;26963;42.666;23.366;2023-12-07T06:08:21;94636.44;;;8.00;68.15
40205;BME280;26963;42.666;23.366;2023-12-07T06:10:47;94585.06;;;7.71;68.13
40205;BME280;26963;42.666;23.366;2023-12-07T06:13:13;94560.72;;;7.53;67.76
40205;BME280;26963;42.666;23.366;2023-12-07T06:15:39;94637.69;;;8.08;67.93
40205;BME280;26963;42.666;23.366;2023-12-07T06:18:05;94637.69;;;8.08;67.99
40205;BME280;26963;42.666;23.366;2023-12-07T06:20:32;94643.44;;;8.15;67.67
40205;BME280;26963;42.666;23.366;2023-12-07T06:22:58;94653.78;;;8.22;67.29
40205;BME280;26963;42.666;23.366;2023-12-07T06:25:24;94654.56;;;8.23;67.65
40205;BME280;26963;42.666;23.366;2023-12-07T06:27:49;94574.94;;;7.73;67.93
40205;BME280;26963;42.666;23.366;2023-12-07T06:30:15;94656.41;;;8.27;67.71
40205;BME280;26963;42.666;23.366;2023-12-07T06:32:41;94636.56;;;8.14;67.56
40205;BME280;26963;42.666;23.366;2023-12-07T06:35:07;94568.97;;;7.81;67.46
40205;BME280;26963;42.666;23.366;2023-12-07T06:37:33;94653.91;;;8.36;67.19
40205;BME280;26963;42.666;23.366;2023-12-07T06:39:59;94647.31;;;8.28;66.93
40205;BME280;26963;42.666;23.366;2023-12-07T06:42:26;94660.00;;;8.37;66.40
40205;BME280;26963;42.666;23.366;2023-12-07T06:44:52;94663.13;;;8.44;66.37
40205;BME280;26963;42.666;23.366;2023-12-07T06:47:17;94596.19;;;8.02;66.20
40205;BME280;26963;42.666;23.366;2023-12-07T06:49:44;94643.44;;;8.40;66.33
40205;BME280;26963;42.666;23.366;2023-12-07T06:52:11;94663.41;;;8.47;66.47
40205;BME280;26963;42.666;23.366;2023-12-07T06:54:37;94655.88;;;8.49;66.20
40205;BME280;26963;42.666;23.366;2023-12-07T06:57:04;94655.81;;;8.55;66.90
40205;BME280;26963;42.666;23.366;2023-12-07T06:59:30;94654.47;;;8.57;66.18
40205;BME280;26963;42.666;23.366;2023-12-07T07:01:56;94661.84;;;8.65;66.31
40205;BME280;26963;42.666;23.366;2023-12-07T07:04:22;94672.44;;;8.71;66.05
40205;BME280;26963;42.666;23.366;2023-12-07T07:06:47;94602.72;;;8.34;65.77
40205;BME280;26963;42.666;23.366;2023-12-07T07:09:14;94673.44;;;8.75;66.06
40205;BME280;26963;42.666;23.366;2023-12-07T07:11:41;94623.16;;;8.44;65.76
40205;BME280;26963;42.666;23.366;2023-12-07T07:14:07;94680.81;;;8.83;65.26
40205;BME280;26963;42.666;23.366;2023-12-07T07:16:33;94635.78;;;8.57;65.73
40205;BME280;26963;42.666;23.366;2023-12-07T07:18:58;94672.25;;;8.86;64.64
40205;BME280;26963;42.666;23.366;2023-12-07T07:21:24;94558.59;;;8.04;64.62
40205;BME280;26963;42.666;23.366;2023-12-07T07:23:50;94595.75;;;8.38;65.58
40205;BME280;26963;42.666;23.366;2023-12-07T07:26:15;94652.91;;;8.75;65.53
40205;BME280;26963;42.666;23.366;2023-12-07T07:28:43;94681.19;;;8.95;65.85
40205;BME280;26963;42.666;23.366;2023-12-07T07:31:08;94675.28;;;8.98;65.17
40205;BME280;26963;42.666;23.366;2023-12-07T07:33:34;94680.63;;;8.98;65.30
40205;BME280;26963;42.666;23.366;2023-12-07T07:36:00;94672.47;;;8.90;64.98
40205;BME280;26963;42.666;23.366;2023-12-07T07:38:25;94687.53;;;9.00;64.66
40205;BME280;26963;42.666;23.366;2023-12-07T07:40:51;94584.22;;;8.43;64.36
40205;BME280;26963;42.666;23.366;2023-12-07T07:43:17;94690.16;;;9.05;64.35
40205;BME280;26963;42.666;23.366;2023-12-07T07:45:43;94689.13;;;9.01;64.50
40205;BME280;26963;42.666;23.366;2023-12-07T07:48:09;94685.94;;;8.98;64.47
40205;BME280;26963;42.666;23.366;2023-12-07T07:50:35;94669.88;;;8.85;64.08
40205;BME280;26963;42.666;23.366;2023-12-07T07:53:02;94689.25;;;8.90;64.70
40205;BME280;26963;42.666;23.366;2023-12-07T07:55:29;94665.50;;;8.70;64.72
40205;BME280;26963;42.666;23.366;2023-12-07T07:57:55;94661.84;;;8.65;64.76
40205;BME280;26963;42.666;23.366;2023-12-07T08:00:21;94683.50;;;8.83;65.13
40205;BME280;26963;42.666;23.366;2023-12-07T08:02:46;94705.25;;;8.90;64.87
40205;BME280;26963;42.666;23.366;2023-12-07T08:05:12;94646.22;;;8.54;64.96
40205;BME280;26963;42.666;23.366;2023-12-07T08:07:39;94629.91;;;8.36;64.90
40205;BME280;26963;42.666;23.366;2023-12-07T08:10:06;94628.66;;;8.28;64.66
40205;BME280;26963;42.666;23.366;2023-12-07T08:12:33;94706.16;;;8.61;64.98
40205;BME280;26963;42.666;23.366;2023-12-07T08:14:58;94723.66;;;8.68;65.07
40205;BME280;26963;42.666;23.366;2023-12-07T08:17:24;94713.59;;;8.64;65.54
40205;BME280;26963;42.666;23.366;2023-12-07T08:19:52;94700.25;;;8.64;64.58
40205;BME280;26963;42.666;23.366;2023-12-07T08:22:18;94700.88;;;8.56;64.42
40205;BME280;26963;42.666;23.366;2023-12-07T08:24:44;94730.03;;;8.72;64.32
40205;BME280;26963;42.666;23.366;2023-12-07T08:27:09;94689.41;;;8.56;63.78
40205;BME280;26963;42.666;23.366;2023-12-07T08:29:35;94662.75;;;8.31;63.58
40205;BME280;26963;42.666;23.366;2023-12-07T08:32:02;94656.41;;;8.27;62.87
40205;BME280;26963;42.666;23.366;2023-12-07T08:34:27;94692.22;;;8.40;63.33
40205;BME280;26963;42.666;23.366;2023-12-07T08:36:53;94732.78;;;8.67;63.30
40205;BME280;26963;42.666;23.366;2023-12-07T08:39:19;94645.94;;;8.07;63.30
40205;BME280;26963;42.666;23.366;2023-12-07T08:41:44;94674.25;;;8.27;63.26
40205;BME280;26963;42.666;23.366;2023-12-07T08:44:10;94732.19;;;8.70;63.59
40205;BME280;26963;42.666;23.366;2023-12-07T08:46:36;94730.59;;;8.69;63.35
40205;BME280;26963;42.666;23.366;2023-12-07T08:49:02;94729.47;;;8.75;62.97
40205;BME280;26963;42.666;23.366;2023-12-07T08:51:28;94748.06;;;8.80;62.39
40205;BME280;26963;42.666;23.366;2023-12-07T08:53:54;94745.69;;;8.78;62.02
40205;BME280;26963;42.666;23.366;2023-12-07T08:56:20;94736.16;;;8.72;62.54
40205;BME280;26963;42.666;23.366;2023-12-07T08:58:45;94693.50;;;8.48;62.44
40205;BME280;26963;42.666;23.366;2023-12-07T09:01:11;94735.63;;;8.75;61.45
40205;BME280;26963;42.666;23.366;2023-12-07T09:03:37;94688.72;;;8.45;61.97
40205;BME280;26963;42.666;23.366;2023-12-07T09:06:03;94749.91;;;8.85;61.45
40205;BME280;26963;42.666;23.366;2023-12-07T09:08:30;94660.81;;;8.13;60.96
40205;BME280;26963;42.666;23.366;2023-12-07T09:10:56;94758.88;;;8.70;60.87
40205;BME280;26963;42.666;23.366;2023-12-07T09:13:22;94719.59;;;8.51;61.20
40205;BME280;26963;42.666;23.366;2023-12-07T09:15:48;94746.59;;;8.69;61.75
40205;BME280;26963;42.666;23.366;2023-12-07T09:18:14;94724.13;;;8.51;61.51
40205;BME280;26963;42.666;23.366;2023-12-07T09:20:40;94747.19;;;8.65;61.33
40205;BME280;26963;42.666;23.366;2023-12-07T09:23:14;94739.31;;;8.55;61.89
40205;BME280;26963;42.666;23.366;2023-12-07T09:25:43;94672.09;;;8.05;62.10
40205;BME280;26963;42.666;23.366;2023-12-07T09:28:09;94717.88;;;8.36;62.01
40205;BME280;26963;42.666;23.366;2023-12-07T09:30:35;94729.44;;;8.26;61.89
40205;BME280;26963;42.666;23.366;2023-12-07T09:33:01;94752.75;;;8.40;61.75
40205;BME280;26963;42.666;23.366;2023-12-07T09:35:30;94712.50;;;8.12;61.74
40205;BME280;26963;42.666;23.366;2023-12-07T09:37:56;94750.75;;;8.26;61.00
40205;BME280;26963;42.666;23.366;2023-12-07T09:40:22;94760.94;;;8.19;61.22
40205;BME280;26963;42.666;23.366;2023-12-07T09:42:49;94714.88;;;7.89;61.95
40205;BME280;26963;42.666;23.366;2023-12-07T09:45:15;94754.13;;;8.08;61.61
40205;BME280;26963;42.666;23.366;2023-12-07T09:47:47;94676.72;;;7.64;62.51
40205;BME280;26963;42.666;23.366;2023-12-07T09:50:15;94751.41;;;8.13;62.67
40205;BME280;26963;42.666;23.366;2023-12-07T09:52:42;94754.63;;;8.10;61.76
40205;BME280;26963;42.666;23.366;2023-12-07T09:55:08;94736.19;;;7.89;61.46
40205;BME280;26963;42.666;23.366;2023-12-07T09:57:37;94735.69;;;7.82;62.46
40205;BME280;26963;42.666;23.366;2023-12-07T10:00:21;94757.50;;;7.89;62.21
40205;BME280;26963;42.666;23.366;2023-12-07T10:02:46;94758.84;;;7.87;62.57
40205;BME280;26963;42.666;23.366;2023-12-07T10:05:13;94732.66;;;7.59;62.55
40205;BME280;26963;42.666;23.366;2023-12-07T10:07:43;94733.22;;;7.56;63.12
40205;BME280;26963;42.666;23.366;2023-12-07T10:10:09;94754.38;;;7.77;62.50
40205;BME280;26963;42.666;23.366;2023-12-07T10:13:04;94656.97;;;6.96;62.12
40205;BME280;26963;42.666;23.366;2023-12-07T10:15:30;94616.69;;;6.74;62.37
40205;BME280;26963;42.666;23.366;2023-12-07T10:17:57;94579.41;;;6.39;63.12
40205;BME280;26963;42.666;23.366;2023-12-07T10:20:28;94637.19;;;6.73;62.85
40205;BME280;26963;42.666;23.366;2023-12-07T10:23:04;94746.56;;;7.51;63.60
40205;BME280;26963;42.666;23.366;2023-12-07T10:25:31;94725.41;;;7.30;63.36
40205;BME280;26963;42.666;23.366;2023-12-07T10:27:57;94748.19;;;7.47;63.31
40205;BME280;26963;42.666;23.366;2023-12-07T10:30:23;94732.25;;;7.42;63.55
40205;BME280;26963;42.666;23.366;2023-12-07T10:32:52;94737.28;;;7.43;63.52
40205;BME280;26963;42.666;23.366;2023-12-07T10:35:18;94750.03;;;7.51;63.23
40205;BME280;26963;42.666;23.366;2023-12-07T10:37:45;94751.88;;;7.51;62.97
40205;BME280;26963;42.666;23.366;2023-12-07T10:40:12;94725.94;;;7.32;62.93
40205;BME280;26963;42.666;23.366;2023-12-07T10:42:40;94710.06;;;7.17;62.49
40205;BME280;26963;42.666;23.366;2023-12-07T10:45:07;94744.03;;;7.30;62.92
40205;BME280;26963;42.666;23.366;2023-12-07T10:47:36;94739.59;;;7.15;63.22
40205;BME280;26963;42.666;23.366;2023-12-07T10:50:07;94663.50;;;6.69;62.84
40205;BME280;26963;42.666;23.366;2023-12-07T10:52:39;94659.84;;;6.60;63.42
40205;BME280;26963;42.666;23.366;2023-12-07T10:55:20;94742.25;;;7.15;63.82
40205;BME280;26963;42.666;23.366;2023-12-07T10:57:52;94666.97;;;6.65;63.84
40205;BME280;26963;42.666;23.366;2023-12-07T11:00:18;94705.94;;;6.90;63.66
40205;BME280;26963;42.666;23.366;2023-12-07T11:02:45;94744.66;;;7.12;64.33
40205;BME280;26963;42.666;23.366;2023-12-07T11:05:11;94734.59;;;7.09;63.21
40205;BME280;26963;42.666;23.366;2023-12-07T11:07:50;94700.94;;;6.83;63.78
40205;BME280;26963;42.666;23.366;2023-12-07T11:10:22;94708.63;;;6.85;63.13
40205;BME280;26963;42.666;23.366;2023-12-07T11:13:00;94714.69;;;6.96;63.80
40205;BME280;26963;42.666;23.366;2023-12-07T11:15:32;94730.97;;;6.89;63.83
40205;BME280;26963;42.666;23.366;2023-12-07T11:17:58;94717.66;;;6.84;64.53
40205;BME280;26963;42.666;23.366;2023-12-07T11:23:17;94742.34;;;7.00;64.41
40205;BME280;26963;42.666;23.366;2023-12-07T11:25:46;94750.28;;;7.05;63.57
40205;BME280;26963;42.666;23.366;2023-12-07T11:28:13;94748.47;;;7.00;64.13
40205;BME280;26963;42.666;23.366;2023-12-07T11:30:42;94726.19;;;6.86;63.55
40205;BME280;26963;42.666;23.366;2023-12-07T11:33:09;94662.00;;;6.48;64.32
40205;BME280;26963;42.666;23.366;2023-12-07T11:38:26;94711.56;;;6.83;63.85
40205;BME280;26963;42.666;23.366;2023-12-07T11:40:54;94708.34;;;6.92;63.64
40205;BME280;26963;42.666;23.366;2023-12-07T11:45:59;94720.47;;;7.13;63.39
40205;BME280;26963;42.666;23.366;2023-12-07T11:48:25;94666.94;;;6.75;63.14
40205;BME280;26963;42.666;23.366;2023-12-07T11:53:24;94728.44;;;7.13;62.79
40205;BME280;26963;42.666;23.366;2023-12-07T11:55:50;94703.03;;;6.92;63.83
40205;BME280;26963;42.666;23.366;2023-12-07T11:58:16;94720.34;;;6.89;64.50
40205;BME280;26963;42.666;23.366;2023-12-07T12:00:43;94705.47;;;6.83;64.42
40205;BME280;26963;42.666;23.366;2023-12-07T12:03:09;94714.50;;;6.82;64.32
40205;BME280;26963;42.666;23.366;2023-12-07T12:05:34;94730.41;;;6.92;64.51
40205;BME280;26963;42.666;23.366;2023-12-07T12:08:00;94678.19;;;6.57;65.05
40205;BME280;26963;42.666;23.366;2023-12-07T12:10:25;94715.03;;;6.79;64.60
40205;BME280;26963;42.666;23.366;2023-12-07T12:12:53;94678.72;;;6.59;64.46
40205;BME280;26963;42.666;23.366;2023-12-07T12:15:19;94698.03;;;6.75;63.91
40205;BME280;26963;42.666;23.366;2023-12-07T12:17:46;94706.00;;;6.80;65.10
40205;BME280;26963;42.666;23.366;2023-12-07T12:20:13;94632.31;;;6.30;64.03
40205;BME280;26963;42.666;23.366;2023-12-07T12:22:43;94687.75;;;6.58;64.93
40205;BME280;26963;42.666;23.366;2023-12-07T12:25:09;94712.97;;;6.71;63.94
40205;BME280;26963;42.666;23.366;2023-12-07T12:27:36;94668.69;;;6.40;64.47
40205;BME280;26963;42.666;23.366;2023-12-07T12:30:02;94675.31;;;6.43;65.02
40205;BME280;26963;42.666;23.366;2023-12-07T12:32:42;94698.41;;;6.58;65.33
40205;BME280;26963;42.666;23.366;2023-12-07T12:35:08;94723.88;;;6.69;65.46
40205;BME280;26963;42.666;23.366;2023-12-07T12:37:33;94730.78;;;6.65;65.70
40205;BME280;26963;42.666;23.366;2023-12-07T12:40:08;94706.13;;;6.54;65.97
40205;BME280;26963;42.666;23.366;2023-12-07T12:42:34;94705.31;;;6.53;65.70
40205;BME280;26963;42.666;23.366;2023-12-07T12:45:04;94708.25;;;6.52;65.19
40205;BME280;26963;42.666;23.366;2023-12-07T12:47:30;94722.56;;;6.56;65.61
40205;BME280;26963;42.666;23.366;2023-12-07T12:49:56;94660.03;;;6.09;65.61
40205;BME280;26963;42.666;23.366;2023-12-07T12:52:23;94730.56;;;6.51;65.92
40205;BME280;26963;42.666;23.366;2023-12-07T12:54:51;94711.19;;;6.45;64.90
40205;BME280;26963;42.666;23.366;2023-12-07T12:57:17;94726.34;;;6.45;66.19
40205;BME280;26963;42.666;23.366;2023-12-07T12:59:44;94673.84;;;6.11;65.99
40205;BME280;26963;42.666;23.366;2023-12-07T13:02:10;94740.66;;;6.54;65.73
40205;BME280;26963;42.666;23.366;2023-12-07T13:04:37;94731.66;;;6.40;65.83
40205;BME280;26963;42.666;23.366;2023-12-07T13:07:03;94699.31;;;5.96;65.78
40205;BME280;26963;42.666;23.366;2023-12-07T13:09:28;94741.81;;;6.12;65.79
40205;BME280;26963;42.666;23.366;2023-12-07T13:11:54;94691.38;;;5.76;65.80
40205;BME280;26963;42.666;23.366;2023-12-07T13:14:20;94686.63;;;5.78;66.65